1929 NOT_NAMED (1929288N13131)


IBTrACS version v04r00. Visit IBTrACS website for data access.
Please direct all questions to the IBTrACS Q and A forum

Storm track - Intensity - Wind Radii - Intensity Data - Source Data - All data

Summary Information

Storm ID 1929288N13131
Start Oct 14 22Z
End Oct 17 22Z
ATCF IDs
Track status Best track data.

Storm track plot

Map of storm track

Intensity plots

No Intensity information for this storm


Radial wind information

No radial wind information for this storm


Position and Intensity Table

BASIN ISO_TIME_________ NATURE LAT LON
degrees north degrees east
WP 1929-10-14 22:00:00 NR 12.80 131.10
WP 1929-10-15 00:00:00 NR 13.01 130.63
WP 03:00:00 NR 13.33 129.94
WP 06:00:00 NR 13.66 129.26
WP 09:00:00 NR 13.99 128.61
WP 10:00:00 NR 14.10 128.40
WP 12:00:00 NR 14.33 128.00
WP 15:00:00 NR 14.69 127.43
WP 18:00:00 NR 15.07 126.91
WP 21:00:00 NR 15.46 126.44
WP 22:00:00 NR 15.60 126.30
WP 1929-10-16 00:00:00 NR 15.88 126.01
WP 03:00:00 NR 16.31 125.61
WP 06:00:00 NR 16.77 125.27
WP 09:00:00 NR 17.24 124.98
WP 10:00:00 NR 17.40 124.90
WP 12:00:00 NR 17.73 124.74
WP 15:00:00 NR 18.25 124.55
WP 18:00:00 NR 18.76 124.41
WP 21:00:00 NR 19.25 124.32
WP 22:00:00 NR 19.40 124.30
WP 1929-10-17 00:00:00 NR 19.68 124.25
WP 03:00:00 NR 20.06 124.22
WP 06:00:00 NR 20.42 124.23
WP 09:00:00 NR 20.78 124.28
WP 10:00:00 NR 20.90 124.30
WP 12:00:00 NR 21.15 124.36
WP 15:00:00 NR 21.54 124.47
WP 18:00:00 NR 21.95 124.60
WP 21:00:00 NR 22.36 124.75
WP 22:00:00 NR 22.50 124.80

Source Information

Agency Information
USA
TOKYO
CMA
HKO
NEWDELHI
REUNION
BOM
NADI
WELLINGTON
DS824
TD9636 cons_worldwide_trop_cyclone_18710101-19891231-003:Line=8433
TD9635
NEUMANN
MLC

All available IBTrACS Data

SEASON BASIN SUBBASIN ISO_TIME_________ NATURE LAT LON DIST2LAND LANDFALL IFLAG USA SSHS TD9636 LAT TD9636 LON TD9636 STAGE STORM SPEED STORM DIR
Year degrees north degrees east km km 1 degrees north degrees east kts degrees
1929 WP MM 1929-10-14 22:00:00 NR 12.80 131.10 611 560 __________O___ -1 12.80 131.10 7 15 295
1929 WP MM 1929-10-15 00:00:00 NR 13.01 130.63 560 493 __________P___ -1 13.01 130.63 7 15 295
1929 WP MM 03:00:00 NR 13.33 129.94 493 440 __________P___ -1 13.33 129.94 7 15 296
1929 WP MM 06:00:00 NR 13.66 129.26 444 391 __________P___ -1 13.66 129.26 7 15 297
1929 WP MM 09:00:00 NR 13.99 128.61 391 379 __________P___ -1 13.99 128.61 7 14 298
1929 WP MM 10:00:00 NR 14.10 128.40 379 358 __________O___ -1 14.10 128.40 7 14 300
1929 WP MM 12:00:00 NR 14.33 128.00 358 335 __________P___ -1 14.33 128.00 7 13 302
1929 WP MM 15:00:00 NR 14.69 127.43 335 296 __________P___ -1 14.69 127.43 7 13 305
1929 WP MM 18:00:00 NR 15.07 126.91 300 279 __________P___ -1 15.07 126.91 7 12 309
1929 WP MM 21:00:00 NR 15.46 126.44 279 279 __________P___ -1 15.46 126.44 7 12 312
1929 WP MM 22:00:00 NR 15.60 126.30 279 279 __________O___ -1 15.60 126.30 7 12 314
1929 WP MM 1929-10-16 00:00:00 NR 15.88 126.01 280 273 __________P___ -1 15.88 126.01 7 12 317
1929 WP MM 03:00:00 NR 16.31 125.61 292 292 __________P___ -1 16.31 125.61 7 11 321
1929 WP MM 06:00:00 NR 16.77 125.27 298 266 __________P___ -1 16.77 125.27 7 11 327
1929 WP MM 09:00:00 NR 17.24 124.98 266 257 __________P___ -1 17.24 124.98 7 11 331
1929 WP MM 10:00:00 NR 17.40 124.90 258 246 __________O___ -1 17.40 124.90 7 11 335
1929 WP MM 12:00:00 NR 17.73 124.74 246 232 __________P___ -1 17.73 124.74 7 11 338
1929 WP MM 15:00:00 NR 18.25 124.55 232 222 __________P___ -1 18.25 124.55 7 11 343
1929 WP MM 18:00:00 NR 18.76 124.41 225 224 __________P___ -1 18.76 124.41 7 10 348
1929 WP MM 21:00:00 NR 19.25 124.32 228 233 __________P___ -1 19.25 124.32 7 10 351
1929 WP MM 22:00:00 NR 19.40 124.30 238 238 __________O___ -1 19.40 124.30 7 9 351
1929 WP MM 1929-10-17 00:00:00 NR 19.68 124.25 255 247 __________P___ -1 19.68 124.25 7 8 353
1929 WP MM 03:00:00 NR 20.06 124.22 275 275 __________P___ -1 20.06 124.22 7 7 359
1929 WP MM 06:00:00 NR 20.42 124.23 299 299 __________P___ -1 20.42 124.23 7 7 5
1929 WP MM 09:00:00 NR 20.78 124.28 340 340 __________P___ -1 20.78 124.28 7 7 8
1929 WP MM 10:00:00 NR 20.90 124.30 349 349 __________O___ -1 20.90 124.30 7 8 12
1929 WP MM 12:00:00 NR 21.15 124.36 370 356 __________P___ -1 21.15 124.36 7 8 14
1929 WP MM 15:00:00 NR 21.54 124.47 365 350 __________P___ -1 21.54 124.47 7 8 16
1929 WP MM 18:00:00 NR 21.95 124.60 354 346 __________P___ -1 21.95 124.60 7 9 18
1929 WP MM 21:00:00 NR 22.36 124.75 357 354 __________P___ -1 22.36 124.75 7 9 18
1929 WP MM 22:00:00 NR 22.50 124.80 354 __________O___ -1 22.50 124.80 7 9 14